createdAt,value
2023-11-09T00:00:13.077Z,73.9
2023-11-09T00:01:30.111Z,74.1
2023-11-09T00:02:47.124Z,74.6
2023-11-09T00:04:04.299Z,75.1
2023-11-09T00:05:21.164Z,75.2
2023-11-09T00:06:38.180Z,75.2
2023-11-09T00:07:55.022Z,75.8
2023-11-09T00:09:12.044Z,76.5
2023-11-09T00:10:29.239Z,77
2023-11-09T00:11:46.141Z,77.5
2023-11-09T00:13:03.195Z,77.8
2023-11-09T00:14:20.142Z,78.1
2023-11-09T00:15:37.060Z,78.5
2023-11-09T00:16:54.573Z,78.3
2023-11-09T00:18:11.064Z,77.6
2023-11-09T00:19:28.272Z,76.9
2023-11-09T00:20:45.153Z,76.3
2023-11-09T00:22:02.170Z,75.3
2023-11-09T00:23:19.335Z,75.1
2023-11-09T00:24:36.144Z,75.2
2023-11-09T00:25:53.371Z,75.1
2023-11-09T00:27:10.241Z,75.1
2023-11-09T00:28:27.592Z,74.9
2023-11-09T00:29:44.236Z,74.9
2023-11-09T00:31:01.132Z,74.8
2023-11-09T00:32:18.265Z,74.7
2023-11-09T00:33:35.144Z,74.9
2023-11-09T00:34:52.137Z,75.2
2023-11-09T00:36:09.113Z,75.5
2023-11-09T00:37:26.358Z,75.3
2023-11-09T00:38:43.136Z,75.1
2023-11-09T00:40:00.297Z,75.1
2023-11-09T00:41:17.100Z,75
2023-11-09T00:42:34.188Z,75
2023-11-09T00:43:51.330Z,75
2023-11-09T00:45:08.129Z,75
2023-11-09T00:46:25.270Z,75.2
2023-11-09T00:47:42.184Z,75.2
2023-11-09T00:48:59.505Z,75.2
2023-11-09T00:50:16.168Z,75.2
2023-11-09T00:51:33.107Z,75
2023-11-09T00:52:50.240Z,74.9
2023-11-09T00:54:07.104Z,74.9
2023-11-09T00:55:24.191Z,75
2023-11-09T00:56:41.143Z,75
2023-11-09T00:57:58.285Z,75.2
2023-11-09T00:59:15.329Z,75.6
2023-11-09T01:00:32.221Z,75.7
2023-11-09T01:01:49.235Z,76
2023-11-09T01:03:06.319Z,75.9
2023-11-09T01:04:23.199Z,75.8
2023-11-09T01:05:40.903Z,76.1
2023-11-09T01:06:58.339Z,76.6
2023-11-09T01:08:15.193Z,77.1
2023-11-09T01:09:32.210Z,77.6
2023-11-09T01:10:49.162Z,78
2023-11-09T01:12:06.259Z,78.1
2023-11-09T01:13:23.225Z,78.1
2023-11-09T01:14:40.318Z,77.9
2023-11-09T01:15:57.173Z,77.3
2023-11-09T01:17:14.150Z,76.8
2023-11-09T01:18:31.301Z,76.2
2023-11-09T01:19:48.351Z,75.6
2023-11-09T01:21:05.313Z,75.3
2023-11-09T01:22:22.220Z,74.8
2023-11-09T01:23:39.259Z,74.4
2023-11-09T01:24:56.258Z,74
2023-11-09T01:26:13.136Z,74
2023-11-09T01:27:30.222Z,74.1
2023-11-09T01:28:47.171Z,73.6
2023-11-09T01:30:04.374Z,73.2
2023-11-09T01:31:21.171Z,73
2023-11-09T01:32:38.932Z,73.3
2023-11-09T01:34:02.392Z,73.7
2023-11-09T01:35:13.192Z,73.8
2023-11-09T01:36:30.302Z,73.5
2023-11-09T01:37:47.151Z,73.7
2023-11-09T01:39:04.276Z,73.7
2023-11-09T01:40:21.352Z,73.6
2023-11-09T01:41:38.336Z,73.5
2023-11-09T01:42:55.196Z,73.8
2023-11-09T01:44:12.314Z,73.7
2023-11-09T01:45:29.346Z,73.4
2023-11-09T01:46:46.224Z,73.1
2023-11-09T01:48:03.235Z,72.9
2023-11-09T01:49:20.299Z,72.6
2023-11-09T01:50:37.201Z,72.4
2023-11-09T01:51:54.244Z,72.2
2023-11-09T01:53:11.513Z,71.9
2023-11-09T01:54:28.302Z,72
2023-11-09T01:55:45.208Z,72.2
2023-11-09T01:57:02.275Z,72
2023-11-09T01:58:19.269Z,71.9
2023-11-09T01:59:36.289Z,71.7
2023-11-09T02:00:53.375Z,71.6
2023-11-09T02:02:10.221Z,71.6
2023-11-09T02:03:27.312Z,71.5
2023-11-09T02:04:44.455Z,71.4
2023-11-09T02:06:01.259Z,71.4
2023-11-09T02:07:18.345Z,71.4
2023-11-09T02:08:35.257Z,71.5
2023-11-09T02:09:52.355Z,71.4
2023-11-09T02:11:11.030Z,71.4
2023-11-09T02:12:26.223Z,72
2023-11-09T02:13:43.393Z,72.6
2023-11-09T02:15:00.302Z,73.2
2023-11-09T02:16:17.417Z,73.9
2023-11-09T02:17:35.095Z,74.6
2023-11-09T02:18:52.431Z,75.1
2023-11-09T02:20:09.210Z,75.5
2023-11-09T02:21:26.306Z,76.1
2023-11-09T02:22:43.195Z,76.1
2023-11-09T02:24:00.473Z,75.8
2023-11-09T02:25:17.406Z,75.2
2023-11-09T02:26:34.342Z,74.7
2023-11-09T02:27:51.328Z,74.6
2023-11-09T02:29:08.403Z,74.2
2023-11-09T02:30:25.316Z,73.7
2023-11-09T02:31:42.814Z,73.4
2023-11-09T02:32:59.373Z,72.9
2023-11-09T02:34:16.448Z,72.6
2023-11-09T02:35:33.440Z,72.7
2023-11-09T02:36:50.372Z,72.6
2023-11-09T02:38:07.232Z,72.4
2023-11-09T02:39:24.341Z,72.2
2023-11-09T02:40:41.376Z,72.2
2023-11-09T02:41:58.275Z,72.1
2023-11-09T02:43:16.121Z,71.9
2023-11-09T02:44:33.364Z,71.6
2023-11-09T02:45:50.458Z,71.4
2023-11-09T02:47:07.314Z,71.1
2023-11-09T02:48:24.388Z,71.9
2023-11-09T02:49:41.410Z,72.8
2023-11-09T02:50:58.417Z,73.4
2023-11-09T02:52:15.301Z,73.8
2023-11-09T02:53:32.413Z,74.4
2023-11-09T02:54:49.247Z,74.7
2023-11-09T02:56:06.401Z,74.7
2023-11-09T02:57:23.250Z,74.3
2023-11-09T02:58:40.459Z,73.6
2023-11-09T02:59:57.312Z,73
2023-11-09T03:01:14.614Z,72.9
2023-11-09T03:02:31.487Z,72.8
2023-11-09T03:03:48.354Z,73.1
2023-11-09T03:05:05.492Z,73.7
2023-11-09T03:06:22.462Z,74.3
2023-11-09T03:07:39.416Z,74.8
2023-11-09T03:08:56.358Z,75.3
2023-11-09T03:10:13.429Z,76
2023-11-09T03:11:30.341Z,76.5
2023-11-09T03:12:47.321Z,76.8
2023-11-09T03:14:04.485Z,77.1
2023-11-09T03:15:21.442Z,77.3
2023-11-09T03:16:38.381Z,77.2
2023-11-09T03:17:55.651Z,76.9
2023-11-09T03:19:12.384Z,76
2023-11-09T03:20:29.701Z,76.3
2023-11-09T03:21:46.278Z,76.6
2023-11-09T03:23:03.389Z,76.4
2023-11-09T03:24:20.434Z,76.2
2023-11-09T03:25:37.326Z,76.4
2023-11-09T03:26:54.418Z,76.5
2023-11-09T03:28:11.600Z,76.4
2023-11-09T03:29:28.334Z,75.8
2023-11-09T03:30:45.640Z,75.3
2023-11-09T03:32:02.387Z,75.2
2023-11-09T03:33:19.404Z,75.5
2023-11-09T03:34:36.394Z,75.7
2023-11-09T03:35:53.651Z,75.7
2023-11-09T03:37:11.203Z,75.7
2023-11-09T03:38:28.356Z,75.7
2023-11-09T03:39:45.385Z,75.3
2023-11-09T03:41:02.412Z,75.1
2023-11-09T03:42:19.610Z,74.6
2023-11-09T03:43:36.402Z,74.3
2023-11-09T03:44:53.433Z,74
2023-11-09T03:46:10.416Z,73.5
2023-11-09T03:47:27.345Z,73
2023-11-09T03:48:44.571Z,72.8
2023-11-09T03:50:01.393Z,73.4
2023-11-09T03:51:18.449Z,74.2
2023-11-09T03:52:35.396Z,74.8
2023-11-09T03:53:52.530Z,74.9
2023-11-09T03:55:09.547Z,74.8
2023-11-09T03:56:26.353Z,74.7
2023-11-09T03:57:43.488Z,74.4
2023-11-09T03:59:00.388Z,73.9
2023-11-09T04:00:17.795Z,73.5
2023-11-09T04:01:34.484Z,73.2
2023-11-09T04:02:51.487Z,73.2
2023-11-09T04:04:08.603Z,73.5
2023-11-09T04:05:25.484Z,74.3
2023-11-09T04:06:42.339Z,75.2
2023-11-09T04:07:59.378Z,76.1
2023-11-09T04:09:16.390Z,77
2023-11-09T04:10:33.465Z,77.3
2023-11-09T04:11:50.439Z,77.3
2023-11-09T04:13:07.420Z,77.7
2023-11-09T04:14:24.435Z,77.5
2023-11-09T04:15:41.446Z,77.4
2023-11-09T04:16:58.472Z,76.7
2023-11-09T04:18:15.458Z,76.5
2023-11-09T04:19:32.506Z,76.4
2023-11-09T04:20:49.552Z,76.4
2023-11-09T04:22:06.511Z,76.4
2023-11-09T04:23:23.502Z,76.5
2023-11-09T04:24:40.495Z,76.4
2023-11-09T04:25:57.482Z,76.2
2023-11-09T04:27:14.568Z,75.4
2023-11-09T04:28:31.518Z,74.5
2023-11-09T04:29:48.466Z,74.2
2023-11-09T04:31:05.438Z,74.1
2023-11-09T04:32:22.469Z,73.6
2023-11-09T04:33:39.452Z,73.3
2023-11-09T04:34:56.673Z,73.3
2023-11-09T04:36:13.475Z,73.4
2023-11-09T04:37:30.465Z,73.1
2023-11-09T04:38:47.464Z,73.3
2023-11-09T04:40:04.556Z,73.1
2023-11-09T04:41:21.494Z,72.6
2023-11-09T04:42:38.507Z,72
2023-11-09T04:43:55.536Z,72
2023-11-09T04:45:13.144Z,71.7
2023-11-09T04:46:30.547Z,72
2023-11-09T04:47:47.543Z,72.1
2023-11-09T04:49:04.609Z,71.9
2023-11-09T04:50:21.532Z,72
2023-11-09T04:51:38.617Z,72
2023-11-09T04:52:55.436Z,72
2023-11-09T04:54:12.448Z,71.9
2023-11-09T04:55:29.546Z,72.1
2023-11-09T04:56:47.522Z,72.3
2023-11-09T04:58:04.757Z,72.7
2023-11-09T04:59:21.496Z,73.1
2023-11-09T05:00:38.444Z,73.3
2023-11-09T05:01:55.544Z,73.7
2023-11-09T05:03:12.570Z,73.7
2023-11-09T05:04:29.794Z,73.3
2023-11-09T05:05:46.528Z,72.9
2023-11-09T05:07:03.499Z,72.8
2023-11-09T05:08:20.521Z,72.6
2023-11-09T05:09:37.428Z,72.7
2023-11-09T05:10:54.585Z,72.7
2023-11-09T05:12:11.873Z,73.1
2023-11-09T05:13:28.578Z,73.4
2023-11-09T05:14:45.487Z,73.7
2023-11-09T05:16:02.524Z,74
2023-11-09T05:17:19.515Z,74.7
2023-11-09T05:18:36.649Z,75
2023-11-09T05:19:53.541Z,74.9
2023-11-09T05:21:10.603Z,75.3
2023-11-09T05:22:27.817Z,75.2
2023-11-09T05:23:44.558Z,75.1
2023-11-09T05:25:01.921Z,75.1
2023-11-09T05:26:18.676Z,75.1
2023-11-09T05:27:35.973Z,75.1
2023-11-09T05:28:53.500Z,75
2023-11-09T05:30:10.590Z,74.7
2023-11-09T05:31:27.631Z,74.5
2023-11-09T05:32:46.104Z,74.3
2023-11-09T05:34:03.582Z,74.4
2023-11-09T05:35:20.591Z,74.5
2023-11-09T05:36:37.454Z,74.1
2023-11-09T05:37:54.524Z,74
2023-11-09T05:39:11.493Z,74
2023-11-09T05:40:28.848Z,74.1
2023-11-09T05:41:45.474Z,74
2023-11-09T05:43:02.634Z,74
2023-11-09T05:44:19.611Z,74
2023-11-09T05:45:36.592Z,73.8
2023-11-09T05:46:53.489Z,73.9
2023-11-09T05:48:10.883Z,73.5
2023-11-09T05:49:27.584Z,73.2
2023-11-09T05:50:44.655Z,72.9
2023-11-09T05:52:02.690Z,72.8
2023-11-09T05:53:19.571Z,72.7
2023-11-09T05:54:36.660Z,72.5
2023-11-09T05:55:53.571Z,72.6
2023-11-09T05:57:10.572Z,72.9
2023-11-09T05:58:27.714Z,73.3
2023-11-09T05:59:45.205Z,73.7
2023-11-09T06:01:02.551Z,73.9
2023-11-09T06:02:19.850Z,74.1
2023-11-09T06:03:36.689Z,74.2
2023-11-09T06:04:53.736Z,74.4
2023-11-09T06:06:10.603Z,74.4
2023-11-09T06:07:27.623Z,74.3
2023-11-09T06:08:45.877Z,74.6
2023-11-09T06:10:02.668Z,74.6
2023-11-09T06:11:19.580Z,74.3
2023-11-09T06:12:36.704Z,74.2
2023-11-09T06:13:53.822Z,74.3
2023-11-09T06:15:10.700Z,74.6
2023-11-09T06:16:27.644Z,74.5
2023-11-09T06:17:44.738Z,74.3
2023-11-09T06:19:01.639Z,74.1
2023-11-09T06:20:18.983Z,73.8
2023-11-09T06:21:35.535Z,73.6
2023-11-09T06:22:52.694Z,73.3
2023-11-09T06:24:09.636Z,73.2
2023-11-09T06:25:26.866Z,73.2
2023-11-09T06:26:43.785Z,72.4
2023-11-09T06:28:00.781Z,72.1
2023-11-09T06:29:17.640Z,71.1
2023-11-09T06:30:34.694Z,70.4
2023-11-09T06:31:51.614Z,69.8
2023-11-09T06:33:08.713Z,69.3
2023-11-09T06:34:26.059Z,68.4
2023-11-09T06:35:42.650Z,67.7
2023-11-09T06:36:59.586Z,66.8
2023-11-09T06:38:16.652Z,65.4
2023-11-09T06:39:33.734Z,64.5
2023-11-09T06:40:50.677Z,62.9
2023-11-09T06:42:07.544Z,61.3
2023-11-09T06:43:24.724Z,59.9
2023-11-09T06:44:41.615Z,58.9
2023-11-09T06:45:58.595Z,58.6
2023-11-09T06:47:15.583Z,57.7
2023-11-09T06:48:32.861Z,57
2023-11-09T06:49:50.607Z,56.9
2023-11-09T06:51:08.096Z,56.6
2023-11-09T06:52:24.696Z,56.8
2023-11-09T06:53:41.786Z,57.1
2023-11-09T06:54:58.701Z,57.4
2023-11-09T06:56:15.698Z,56.9
2023-11-09T06:57:32.694Z,56.6
2023-11-09T06:58:49.964Z,55.9
2023-11-09T07:00:06.633Z,55.6
2023-11-09T07:01:23.653Z,55.6
2023-11-09T07:02:40.709Z,55.9
2023-11-09T07:03:57.860Z,56.3
2023-11-09T07:05:16.671Z,56.9
2023-11-09T07:06:33.978Z,57.2
2023-11-09T07:07:50.639Z,56.9
2023-11-09T07:09:07.635Z,56.3
2023-11-09T07:10:24.742Z,55.9
2023-11-09T07:11:41.634Z,55.3
2023-11-09T07:12:58.825Z,55.2
2023-11-09T07:14:15.940Z,55.2
2023-11-09T07:15:32.827Z,54.8
2023-11-09T07:16:49.700Z,54
2023-11-09T07:18:06.798Z,54.4
2023-11-09T07:19:23.660Z,55
2023-11-09T07:20:40.723Z,56.4
2023-11-09T07:21:57.712Z,57.7
2023-11-09T07:23:14.753Z,59.4
2023-11-09T07:24:32.001Z,61.1
2023-11-09T07:25:48.780Z,62.5
2023-11-09T07:27:05.683Z,64
2023-11-09T07:28:23.360Z,64.7
2023-11-09T07:29:40.737Z,65.3
2023-11-09T07:30:57.715Z,66.3
2023-11-09T07:32:14.733Z,67.2
2023-11-09T07:33:31.833Z,68.2
2023-11-09T07:34:48.736Z,69
2023-11-09T07:36:05.677Z,69.3
2023-11-09T07:37:22.991Z,69.4
2023-11-09T07:38:40.054Z,69.4
2023-11-09T07:39:56.937Z,69.1
2023-11-09T07:41:13.852Z,69
2023-11-09T07:42:30.722Z,68.8
2023-11-09T07:43:48.064Z,68.4
2023-11-09T07:45:04.815Z,68.6
2023-11-09T07:46:21.799Z,68.5
2023-11-09T07:47:38.831Z,68.5
2023-11-09T07:48:55.828Z,68.3
2023-11-09T07:50:13.116Z,67.9
2023-11-09T07:51:29.781Z,67.4
2023-11-09T07:52:46.956Z,67.3
2023-11-09T07:54:03.875Z,67.2
2023-11-09T07:55:20.845Z,67.2
2023-11-09T07:56:37.853Z,66
2023-11-09T07:57:54.704Z,65.6
2023-11-09T07:59:11.855Z,64.7
2023-11-09T08:00:28.758Z,63.6
2023-11-09T08:01:45.921Z,62.6
2023-11-09T08:03:02.829Z,62.4
2023-11-09T08:04:19.798Z,62
2023-11-09T08:05:36.842Z,62
2023-11-09T08:06:53.741Z,62.3
2023-11-09T08:08:10.741Z,62.6
2023-11-09T08:09:27.868Z,62.9
2023-11-09T08:10:45.294Z,63
2023-11-09T08:12:01.766Z,62.7
2023-11-09T08:13:18.908Z,62.5
2023-11-09T08:14:35.797Z,62.1
2023-11-09T08:15:52.842Z,62.2
2023-11-09T08:17:11.561Z,62.1
2023-11-09T08:18:27.226Z,62
2023-11-09T08:19:44.038Z,61.9
2023-11-09T08:21:00.833Z,62.3
2023-11-09T08:22:17.716Z,62.8
2023-11-09T08:23:34.803Z,62.5
2023-11-09T08:24:51.762Z,61.7
2023-11-09T08:26:08.826Z,61.1
2023-11-09T08:27:25.803Z,60.2
2023-11-09T08:28:42.925Z,59.4
2023-11-09T08:29:59.973Z,58.9
2023-11-09T08:31:16.749Z,58.5
2023-11-09T08:32:33.751Z,58.2
2023-11-09T08:33:50.789Z,58.2
2023-11-09T08:35:07.849Z,58.1
2023-11-09T08:36:24.752Z,58.6
2023-11-09T08:37:41.839Z,58.9
2023-11-09T08:38:58.869Z,58.3
2023-11-09T08:40:16.037Z,58.5
2023-11-09T08:41:33.114Z,58.7
2023-11-09T08:42:49.841Z,58.7
2023-11-09T08:44:06.837Z,59.2
2023-11-09T08:45:23.787Z,59.3
2023-11-09T08:46:40.918Z,59.1
2023-11-09T08:47:57.887Z,59.2
2023-11-09T08:49:14.919Z,58.7
2023-11-09T08:50:31.871Z,58.5
2023-11-09T08:51:48.870Z,58.7
2023-11-09T08:53:06.175Z,59.2
2023-11-09T08:54:22.787Z,59
2023-11-09T08:55:39.877Z,58.8
2023-11-09T08:56:56.964Z,59.2
2023-11-09T08:58:13.857Z,58.8
2023-11-09T08:59:32.277Z,57.8
2023-11-09T09:00:47.791Z,57
2023-11-09T09:02:04.876Z,57.1
2023-11-09T09:03:21.854Z,57
2023-11-09T09:04:38.934Z,56.5
2023-11-09T09:05:55.895Z,56.2
2023-11-09T09:07:12.926Z,56.1
2023-11-09T09:08:29.819Z,55.6
2023-11-09T09:09:47.309Z,55.7
2023-11-09T09:11:06.528Z,55.5
2023-11-09T09:12:20.917Z,55.3
2023-11-09T09:13:38.970Z,54.8
2023-11-09T09:14:55.860Z,54.5
2023-11-09T09:16:12.901Z,54.6
2023-11-09T09:17:30.213Z,54.6
2023-11-09T09:18:47.823Z,54.6
2023-11-09T09:20:05.050Z,54.9
2023-11-09T09:21:21.852Z,54.9
2023-11-09T09:22:39.008Z,55.1
2023-11-09T09:23:55.844Z,55.6
2023-11-09T09:25:13.053Z,56
2023-11-09T09:26:29.849Z,56
2023-11-09T09:27:46.933Z,55.2
2023-11-09T09:29:04.300Z,55.7
2023-11-09T09:30:21.341Z,55.5
2023-11-09T09:31:38.497Z,55.7
2023-11-09T09:32:56.061Z,55.4
2023-11-09T09:34:13.093Z,55.1
2023-11-09T09:35:35.327Z,54.9
2023-11-09T09:36:46.951Z,54.1
2023-11-09T09:38:05.048Z,53.8
2023-11-09T09:39:20.895Z,53.7
2023-11-09T09:40:44.475Z,53.3
2023-11-09T09:41:55.088Z,53.2
2023-11-09T09:43:11.892Z,53.3
2023-11-09T09:44:29.034Z,52.9
2023-11-09T09:45:45.858Z,53.2
2023-11-09T09:47:03.016Z,52.7
2023-11-09T09:48:19.966Z,53
2023-11-09T09:49:36.930Z,52.6
2023-11-09T09:50:54.000Z,52.4
2023-11-09T09:52:11.007Z,52.4
2023-11-09T09:53:27.905Z,52.4
2023-11-09T09:54:44.951Z,52.1
2023-11-09T09:56:02.052Z,52
2023-11-09T09:57:18.949Z,51.8
2023-11-09T09:58:36.052Z,51.9
2023-11-09T09:59:53.087Z,50.8
2023-11-09T10:01:09.948Z,50.3
2023-11-09T10:02:26.974Z,49.8
2023-11-09T10:03:44.017Z,49.2
2023-11-09T10:05:01.179Z,49.7
2023-11-09T10:06:17.913Z,50.4
2023-11-09T10:07:35.336Z,51.3
2023-11-09T10:08:52.373Z,52
2023-11-09T10:10:09.177Z,52.4
2023-11-09T10:11:25.914Z,53.1
2023-11-09T10:12:42.969Z,53.3
2023-11-09T10:13:59.955Z,53.1
2023-11-09T10:15:16.948Z,52.8
2023-11-09T10:16:34.079Z,52.4
2023-11-09T10:17:51.030Z,52.3
2023-11-09T10:19:07.955Z,52.8
2023-11-09T10:20:25.139Z,53.3
2023-11-09T10:21:42.444Z,53.1
2023-11-09T10:22:59.013Z,53
2023-11-09T10:24:21.484Z,52.6
2023-11-09T10:25:38.088Z,52.1
2023-11-09T10:26:55.187Z,51.5
2023-11-09T10:28:11.992Z,51.2
2023-11-09T10:29:29.305Z,51.3
2023-11-09T10:30:46.669Z,51.1
2023-11-09T10:32:05.269Z,50.6
2023-11-09T10:33:22.045Z,49.8
2023-11-09T10:34:39.123Z,49.2
2023-11-09T10:35:55.933Z,49.3
2023-11-09T10:37:12.949Z,49.1
2023-11-09T10:38:30.000Z,49
2023-11-09T10:39:47.081Z,49.7
2023-11-09T10:41:10.237Z,49.2
2023-11-09T10:42:21.124Z,49.7
2023-11-09T10:43:37.938Z,49.8
2023-11-09T10:44:55.761Z,49.2
2023-11-09T10:46:12.091Z,47.5
2023-11-09T10:47:29.024Z,47
2023-11-09T10:48:46.206Z,47.4
2023-11-09T10:50:04.684Z,47.7
2023-11-09T10:51:20.047Z,47.6
2023-11-09T10:52:37.214Z,47.3
2023-11-09T10:53:54.000Z,47.4
2023-11-09T10:55:11.276Z,47.6
2023-11-09T10:56:27.986Z,47.5
2023-11-09T10:57:45.166Z,47.4
2023-11-09T10:59:01.985Z,46.5
2023-11-09T11:00:19.164Z,46.7
2023-11-09T11:01:36.055Z,46.4
2023-11-09T11:02:53.068Z,45.8
2023-11-09T11:04:10.476Z,45.6
2023-11-09T11:05:27.990Z,45.2
2023-11-09T11:06:45.211Z,45.6
2023-11-09T11:08:02.201Z,45.3
2023-11-09T11:09:19.045Z,46
2023-11-09T11:10:36.141Z,46.5
2023-11-09T11:11:53.371Z,46.8
2023-11-09T11:13:10.060Z,46
2023-11-09T11:14:27.117Z,45.5
2023-11-09T11:15:44.115Z,45.8
2023-11-09T11:17:01.153Z,46.4
2023-11-09T11:18:18.171Z,47
2023-11-09T11:19:35.176Z,47.3
2023-11-09T11:20:52.535Z,48
2023-11-09T11:22:09.027Z,48
2023-11-09T11:23:26.368Z,48.2
2023-11-09T11:24:43.085Z,48.5
2023-11-09T11:26:02.929Z,49.1
2023-11-09T11:27:20.824Z,49.4
2023-11-09T11:28:35.083Z,50
2023-11-09T11:29:52.124Z,50.5
2023-11-09T11:31:09.216Z,50.7
2023-11-09T11:32:26.179Z,50.7
2023-11-09T11:33:43.310Z,51.1
2023-11-09T11:35:00.540Z,51.5
2023-11-09T11:36:17.162Z,51.3
2023-11-09T11:37:34.126Z,51.1
2023-11-09T11:38:52.261Z,50.5
2023-11-09T11:40:08.191Z,49.6
2023-11-09T11:41:25.187Z,49.1
2023-11-09T11:42:42.494Z,48.4
2023-11-09T11:44:02.268Z,48.4
2023-11-09T11:45:19.095Z,48.3
2023-11-09T11:46:36.079Z,48.6
2023-11-09T11:47:53.340Z,48.2
2023-11-09T11:49:10.208Z,47.8
2023-11-09T11:50:27.230Z,47.3
2023-11-09T11:51:44.071Z,46.8
2023-11-09T11:53:01.132Z,46.9
2023-11-09T11:54:18.918Z,46.9
2023-11-09T11:55:37.823Z,46.7
2023-11-09T11:56:53.637Z,47
2023-11-09T11:58:10.293Z,46.8
2023-11-09T11:59:27.204Z,46.9
2023-11-09T12:00:44.232Z,46.5
2023-11-09T12:02:01.126Z,46.5
2023-11-09T12:03:18.152Z,46.1
2023-11-09T12:04:35.425Z,45.7
2023-11-09T12:05:52.317Z,45.1
2023-11-09T12:07:09.164Z,45.6
2023-11-09T12:08:26.081Z,45.4
2023-11-09T12:09:43.895Z,45.3
2023-11-09T12:11:01.190Z,45.2
2023-11-09T12:12:18.390Z,44.3
2023-11-09T12:13:35.462Z,44
2023-11-09T12:14:52.403Z,44.2
2023-11-09T12:16:09.496Z,44.9
2023-11-09T12:17:26.216Z,45.2
2023-11-09T12:18:43.198Z,45.5
2023-11-09T12:20:00.304Z,46.3
2023-11-09T12:21:17.276Z,46.4
2023-11-09T12:22:34.290Z,46.6
2023-11-09T12:23:51.324Z,46.7
2023-11-09T12:25:08.124Z,47
2023-11-09T12:26:25.122Z,46.8
2023-11-09T12:27:42.210Z,46.6
2023-11-09T12:28:59.584Z,46.8
2023-11-09T12:30:16.141Z,46.9
2023-11-09T12:31:33.139Z,46.9
2023-11-09T12:32:50.273Z,46.7
2023-11-09T12:34:07.430Z,46.5
2023-11-09T12:35:24.279Z,46.3
2023-11-09T12:36:41.584Z,46.3
2023-11-09T12:37:58.341Z,46.4
2023-11-09T12:39:15.272Z,47
2023-11-09T12:40:32.228Z,46.9
2023-11-09T12:41:49.276Z,47.3
2023-11-09T12:43:06.596Z,47.5
2023-11-09T12:44:23.156Z,47.6
2023-11-09T12:45:40.369Z,47.8
2023-11-09T12:46:57.189Z,47.9
2023-11-09T12:48:14.719Z,48
2023-11-09T12:49:31.453Z,48.1
2023-11-09T12:50:48.221Z,48
2023-11-09T12:52:05.337Z,48.1
2023-11-09T12:53:22.241Z,48.1
2023-11-09T12:54:40.697Z,48.2
2023-11-09T12:55:56.184Z,48.4
2023-11-09T12:57:13.377Z,48.5
2023-11-09T12:58:30.227Z,49
2023-11-09T12:59:47.302Z,49
2023-11-09T13:01:04.267Z,49.5
2023-11-09T13:02:21.186Z,49.6
2023-11-09T13:03:38.299Z,49.9
2023-11-09T13:04:55.323Z,50.2
2023-11-09T13:06:12.227Z,50.1
2023-11-09T13:07:29.301Z,50.2
2023-11-09T13:08:46.280Z,50.1
2023-11-09T13:10:03.923Z,50.4
2023-11-09T13:11:21.287Z,50.4
2023-11-09T13:12:38.523Z,50.3
2023-11-09T13:13:55.298Z,49.9
2023-11-09T13:15:12.698Z,49.2
2023-11-09T13:16:29.456Z,48.8
2023-11-09T13:17:46.244Z,48.4
2023-11-09T13:19:12.778Z,48.5
2023-11-09T13:20:20.387Z,48.4
2023-11-09T13:21:37.361Z,47.8
2023-11-09T13:22:54.328Z,47.5
2023-11-09T13:24:11.385Z,47.1
2023-11-09T13:25:28.246Z,47
2023-11-09T13:26:45.240Z,47.2
2023-11-09T13:28:02.309Z,47.6
2023-11-09T13:29:19.395Z,47.9
2023-11-09T13:30:36.591Z,48.1
2023-11-09T13:31:53.288Z,48.4
2023-11-09T13:33:11.316Z,48.8
2023-11-09T13:34:28.618Z,49.3
2023-11-09T13:35:46.013Z,49.8
2023-11-09T13:37:03.371Z,49.9
2023-11-09T13:38:20.361Z,49.7
2023-11-09T13:39:37.361Z,49.6
2023-11-09T13:40:54.518Z,49.4
2023-11-09T13:42:11.574Z,49.2
2023-11-09T13:43:28.289Z,49.1
2023-11-09T13:44:45.405Z,48.5
2023-11-09T13:46:02.849Z,48
2023-11-09T13:47:19.357Z,47.1
2023-11-09T13:48:37.122Z,46.4
2023-11-09T13:49:54.336Z,44.7
2023-11-09T13:51:11.353Z,43.9
2023-11-09T13:52:28.301Z,43.1
2023-11-09T13:53:45.368Z,42.5
2023-11-09T13:55:03.113Z,42.2
2023-11-09T13:56:21.779Z,41.4
2023-11-09T13:57:40.243Z,40.8
2023-11-09T13:59:00.432Z,40.8
2023-11-09T14:00:16.267Z,40.7
2023-11-09T14:01:33.810Z,41.2
2023-11-09T14:02:51.325Z,41.6
2023-11-09T14:04:08.640Z,41.8
2023-11-09T14:05:25.773Z,42.4
2023-11-09T14:06:42.748Z,42.8
2023-11-09T14:07:59.595Z,43
2023-11-09T14:09:16.919Z,42.7
2023-11-09T14:10:33.261Z,43
2023-11-09T14:11:50.390Z,43.2
2023-11-09T14:13:07.608Z,43
2023-11-09T14:14:24.298Z,43.1
2023-11-09T14:15:41.349Z,43.5
2023-11-09T14:16:58.374Z,43.7
2023-11-09T14:18:15.718Z,44
2023-11-09T14:19:32.292Z,44.3
2023-11-09T14:20:49.376Z,44.3
2023-11-09T14:22:06.332Z,44.5
2023-11-09T14:23:23.540Z,44.7
2023-11-09T14:24:40.404Z,45
2023-11-09T14:25:57.358Z,44.9
2023-11-09T14:27:14.866Z,45
2023-11-09T14:28:31.388Z,44.9
2023-11-09T14:29:48.391Z,45
2023-11-09T14:31:05.761Z,45.2
2023-11-09T14:32:22.629Z,45.4
2023-11-09T14:33:39.429Z,45.5
2023-11-09T14:34:56.899Z,45.8
2023-11-09T14:36:13.437Z,45.9
2023-11-09T14:37:30.480Z,46.3
2023-11-09T14:38:47.524Z,46.3
2023-11-09T14:40:04.674Z,46.1
2023-11-09T14:41:21.352Z,46.1
2023-11-09T14:42:38.598Z,46.2
2023-11-09T14:43:55.424Z,46
2023-11-09T14:45:12.535Z,45.9
2023-11-09T14:46:29.414Z,46.1
2023-11-09T14:47:46.627Z,46.3
2023-11-09T14:49:03.374Z,46.4
2023-11-09T14:50:20.973Z,46.8
2023-11-09T14:51:37.686Z,47.3
2023-11-09T14:52:54.390Z,47.6
2023-11-09T14:54:11.594Z,47.7
2023-11-09T14:55:28.520Z,48
2023-11-09T14:56:45.445Z,48.2
2023-11-09T14:58:02.685Z,48.4
2023-11-09T14:59:19.413Z,49
2023-11-09T15:00:36.696Z,49.1
2023-11-09T15:01:53.551Z,49.1
2023-11-09T15:03:10.472Z,49.4
2023-11-09T15:04:27.474Z,49.5
2023-11-09T15:05:44.712Z,49.4
2023-11-09T15:07:02.023Z,49.4
2023-11-09T15:08:19.491Z,49.3
2023-11-09T15:09:36.525Z,49.4
2023-11-09T15:10:53.492Z,49.8
2023-11-09T15:12:10.470Z,50.1
2023-11-09T15:13:27.570Z,50.6
2023-11-09T15:14:44.509Z,50.9
2023-11-09T15:16:01.937Z,51.1
2023-11-09T15:17:19.938Z,51.5
2023-11-09T15:18:36.923Z,51.8
2023-11-09T15:19:53.709Z,52
2023-11-09T15:21:10.350Z,52.2
2023-11-09T15:22:27.528Z,52.2
2023-11-09T15:23:44.564Z,52.4
2023-11-09T15:25:01.409Z,52.5
2023-11-09T15:26:18.376Z,52.7
2023-11-09T15:27:35.715Z,52.7
2023-11-09T15:28:53.071Z,52.6
2023-11-09T15:30:09.448Z,52.9
2023-11-09T15:31:26.442Z,53.3
2023-11-09T15:32:43.495Z,53.3
2023-11-09T15:34:00.809Z,53.2
2023-11-09T15:35:17.776Z,53.1
2023-11-09T15:36:34.918Z,53.1
2023-11-09T15:37:52.581Z,53.1
2023-11-09T15:39:10.401Z,53.3
2023-11-09T15:40:40.728Z,53.7
2023-11-09T15:41:43.552Z,54.1
2023-11-09T15:43:00.442Z,54.1
2023-11-09T15:44:17.812Z,54.3
2023-11-09T15:45:34.567Z,54.1
2023-11-09T15:46:51.456Z,54.2
2023-11-09T15:48:08.494Z,54.2
2023-11-09T15:49:25.456Z,54.4
2023-11-09T15:50:42.466Z,54.8
2023-11-09T15:51:59.467Z,55
2023-11-09T15:53:16.466Z,55.2
2023-11-09T15:54:33.593Z,55.4
2023-11-09T15:55:50.506Z,55.8
2023-11-09T15:57:07.471Z,55.9
2023-11-09T15:58:24.988Z,55.9
2023-11-09T15:59:42.592Z,56
2023-11-09T16:01:00.646Z,56.2
2023-11-09T16:02:16.537Z,56.4
2023-11-09T16:03:33.525Z,56.6
2023-11-09T16:04:50.544Z,56.6
2023-11-09T16:06:07.451Z,56.7
2023-11-09T16:07:24.566Z,56.8
2023-11-09T16:08:41.622Z,56.9
2023-11-09T16:10:03.356Z,57.1
2023-11-09T16:11:15.480Z,57.3
2023-11-09T16:12:32.495Z,57.4
2023-11-09T16:13:49.515Z,57.6
2023-11-09T16:15:06.527Z,57.9
2023-11-09T16:16:23.649Z,58
2023-11-09T16:17:40.516Z,58.2
2023-11-09T16:18:57.556Z,58.3
2023-11-09T16:20:14.494Z,58.4
2023-11-09T16:21:31.618Z,58.5
2023-11-09T16:22:49.368Z,58.5
2023-11-09T16:24:06.824Z,58.5
2023-11-09T16:25:23.542Z,58.4
2023-11-09T16:26:40.590Z,58.4
2023-11-09T16:27:57.612Z,58.3
2023-11-09T16:29:14.604Z,58.2
2023-11-09T16:30:31.829Z,58.4
2023-11-09T16:31:48.600Z,58.5
2023-11-09T16:33:05.714Z,58.6
2023-11-09T16:34:22.547Z,58.6
2023-11-09T16:35:39.892Z,58.6
2023-11-09T16:36:56.711Z,58.6
2023-11-09T16:38:13.615Z,58.4
2023-11-09T16:39:30.681Z,58.4
2023-11-09T16:40:47.651Z,58.2
2023-11-09T16:42:04.626Z,58
2023-11-09T16:43:21.587Z,58
2023-11-09T16:44:38.620Z,58
2023-11-09T16:45:55.547Z,58.1
2023-11-09T16:47:12.539Z,58.1
2023-11-09T16:48:29.667Z,58.2
2023-11-09T16:49:46.549Z,58.4
2023-11-09T16:51:03.859Z,58.4
2023-11-09T16:52:20.552Z,58.5
2023-11-09T16:53:37.738Z,58.4
2023-11-09T16:54:54.613Z,58.2
2023-11-09T16:56:11.530Z,58.1
2023-11-09T16:57:28.515Z,58.1
2023-11-09T16:58:45.687Z,58.4
2023-11-09T17:00:02.656Z,58.9
2023-11-09T17:01:19.529Z,59.1
2023-11-09T17:02:36.860Z,59.5
2023-11-09T17:03:53.711Z,59.7
2023-11-09T17:05:10.590Z,60.2
2023-11-09T17:06:27.685Z,60.4
2023-11-09T17:07:45.408Z,60.8
2023-11-09T17:09:01.662Z,61.1
2023-11-09T17:10:18.655Z,61.4
2023-11-09T17:11:35.622Z,61.6
2023-11-09T17:12:52.531Z,61.9